createdAt,value
2018-06-12T00:02:11.625Z,17.10
2018-06-12T00:04:40.146Z,17.10
2018-06-12T00:07:08.690Z,17.20
2018-06-12T00:09:37.233Z,17.10
2018-06-12T00:12:05.852Z,17.00
2018-06-12T00:14:34.356Z,16.90
2018-06-12T00:17:02.874Z,16.90
2018-06-12T00:19:31.410Z,16.90
2018-06-12T00:21:59.961Z,16.70
2018-06-12T00:24:28.481Z,16.80
2018-06-12T00:26:56.965Z,16.70
2018-06-12T00:29:25.416Z,16.70
2018-06-12T00:31:53.925Z,16.70
2018-06-12T00:34:22.432Z,16.70
2018-06-12T00:36:51.033Z,16.70
2018-06-12T00:39:19.516Z,16.80
2018-06-12T00:41:48.054Z,16.70
2018-06-12T00:44:16.578Z,16.80
2018-06-12T00:46:45.095Z,16.60
2018-06-12T00:49:13.604Z,16.50
2018-06-12T00:51:42.126Z,16.50
2018-06-12T00:57:10.584Z,16.40
2018-06-12T00:59:39.088Z,16.50
2018-06-12T01:02:07.590Z,16.50
2018-06-12T01:04:36.911Z,16.60
2018-06-12T01:07:05.365Z,16.40
2018-06-12T01:09:33.849Z,16.20
2018-06-12T01:12:02.341Z,16.30
2018-06-12T01:14:30.838Z,16.20
2018-06-12T01:19:27.501Z,16.50
2018-06-12T01:21:55.976Z,16.40
2018-06-12T01:24:24.448Z,16.40
2018-06-12T01:26:52.967Z,16.50
2018-06-12T01:29:22.115Z,16.40
2018-06-12T01:31:50.630Z,16.10
2018-06-12T01:36:47.271Z,16.10
2018-06-12T01:39:15.793Z,15.80
2018-06-12T01:41:44.380Z,16.00
2018-06-12T01:44:12.945Z,15.90
2018-06-12T01:46:41.459Z,15.90
2018-06-12T01:49:10.036Z,15.80
2018-06-12T01:51:38.690Z,15.80
2018-06-12T01:54:07.259Z,16.00
2018-06-12T01:56:35.927Z,16.10
2018-06-12T01:59:04.420Z,15.90
2018-06-12T02:01:32.953Z,15.80
2018-06-12T02:04:01.798Z,15.70
2018-06-12T02:06:30.356Z,15.80
2018-06-12T02:08:59.466Z,16.00
2018-06-12T02:11:27.934Z,15.80
2018-06-12T02:13:56.417Z,15.90
2018-06-12T02:16:24.945Z,15.90
2018-06-12T02:18:53.457Z,15.90
2018-06-12T02:21:21.921Z,15.80
2018-06-12T02:23:50.387Z,15.90
2018-06-12T02:26:18.872Z,16.10
2018-06-12T02:28:47.351Z,16.00
2018-06-12T02:31:17.428Z,15.80
2018-06-12T02:33:46.700Z,15.70
2018-06-12T02:36:16.053Z,15.60
2018-06-12T02:38:44.880Z,15.70
2018-06-12T02:41:14.090Z,15.80
2018-06-12T02:43:43.283Z,15.60
2018-06-12T02:46:12.554Z,15.70
2018-06-12T02:48:41.707Z,15.70
2018-06-12T02:51:10.212Z,15.60
2018-06-12T02:53:38.734Z,15.70
2018-06-12T02:58:35.472Z,15.70
2018-06-12T03:01:03.997Z,15.80
2018-06-12T03:03:32.498Z,15.60
2018-06-12T03:06:01.025Z,15.50
2018-06-12T03:08:29.560Z,15.50
2018-06-12T03:10:58.088Z,15.40
2018-06-12T03:13:26.569Z,15.40
2018-06-12T03:15:55.126Z,15.70
2018-06-12T03:18:23.643Z,15.60
2018-06-12T03:20:52.159Z,15.70
2018-06-12T03:23:20.711Z,15.60
2018-06-12T03:25:59.108Z,15.60
2018-06-12T03:28:27.666Z,15.50
2018-06-12T03:30:56.125Z,15.30
2018-06-12T03:33:24.618Z,15.50
2018-06-12T03:35:53.133Z,15.70
2018-06-12T03:38:21.727Z,15.70
2018-06-12T03:40:50.417Z,15.90
2018-06-12T03:43:18.904Z,15.60
2018-06-12T03:45:47.440Z,15.60
2018-06-12T03:48:15.968Z,15.70
2018-06-12T03:50:44.496Z,15.70
2018-06-12T03:53:13.060Z,15.80
2018-06-12T03:55:41.521Z,15.80
2018-06-12T03:58:10.680Z,15.80
2018-06-12T04:00:39.831Z,15.70
2018-06-12T04:03:08.301Z,15.70
2018-06-12T04:05:36.913Z,15.60
2018-06-12T04:08:05.545Z,15.70
2018-06-12T04:10:34.058Z,15.80
2018-06-12T04:13:02.609Z,15.60
2018-06-12T04:15:31.106Z,15.50
2018-06-12T04:18:00.236Z,15.50
2018-06-12T04:20:28.814Z,15.50
2018-06-12T04:22:57.264Z,15.80
2018-06-12T04:25:25.761Z,15.70
2018-06-12T04:27:54.979Z,15.50
2018-06-12T04:32:51.626Z,15.30
2018-06-12T04:35:20.117Z,15.30
2018-06-12T04:37:48.642Z,15.40
2018-06-12T04:40:17.125Z,15.50
2018-06-12T04:42:45.633Z,15.80
2018-06-12T04:45:14.173Z,15.60
2018-06-12T04:47:42.790Z,15.70
2018-06-12T04:50:11.317Z,15.70
2018-06-12T04:52:39.876Z,15.70
2018-06-12T04:55:08.400Z,15.70
2018-06-12T04:57:36.948Z,15.60
2018-06-12T05:00:05.568Z,15.40
2018-06-12T05:02:34.093Z,15.40
2018-06-12T05:05:03.129Z,15.50
2018-06-12T05:07:31.633Z,15.50
2018-06-12T05:10:00.115Z,15.50
2018-06-12T05:12:28.648Z,15.60
2018-06-12T05:14:57.194Z,15.40
2018-06-12T05:17:25.672Z,15.50
2018-06-12T05:19:54.251Z,15.60
2018-06-12T05:22:22.725Z,15.40
2018-06-12T05:24:51.293Z,15.50
2018-06-12T05:27:19.779Z,15.60
2018-06-12T05:29:49.179Z,15.70
2018-06-12T05:32:17.764Z,15.80
2018-06-12T05:37:14.483Z,15.90
2018-06-12T05:39:43.035Z,15.90
2018-06-12T05:42:11.579Z,15.70
2018-06-12T05:44:40.113Z,15.90
2018-06-12T05:47:08.846Z,16.10
2018-06-12T05:49:37.401Z,16.20
2018-06-12T05:52:06.683Z,16.00
2018-06-12T05:54:35.249Z,16.00
2018-06-12T05:57:03.761Z,15.80
2018-06-12T05:59:32.231Z,15.60
2018-06-12T06:02:00.884Z,15.80
2018-06-12T06:04:29.381Z,15.90
2018-06-12T06:06:57.873Z,15.80
2018-06-12T06:12:10.841Z,15.70
2018-06-12T06:14:39.277Z,15.70
2018-06-12T06:17:07.755Z,15.80
2018-06-12T06:19:36.195Z,15.80
2018-06-12T06:22:04.637Z,15.80
2018-06-12T06:24:33.108Z,15.70
2018-06-12T06:27:01.549Z,15.80
2018-06-12T06:29:29.967Z,15.90
2018-06-12T06:31:58.393Z,16.00
2018-06-12T06:34:26.818Z,15.80
2018-06-12T06:36:55.246Z,15.70
2018-06-12T06:39:23.709Z,15.70
2018-06-12T06:41:52.172Z,15.90
2018-06-12T06:44:20.648Z,15.90
2018-06-12T06:46:49.173Z,15.90
2018-06-12T06:49:17.659Z,15.90
2018-06-12T06:51:46.101Z,16.10
2018-06-12T06:54:14.650Z,16.00
2018-06-12T06:56:43.097Z,15.90
2018-06-12T06:59:11.507Z,16.10
2018-06-12T07:01:39.912Z,16.10
2018-06-12T07:04:08.332Z,15.90
2018-06-12T07:06:36.773Z,15.90
2018-06-12T07:09:07.946Z,16.00
2018-06-12T07:11:36.408Z,16.00
2018-06-12T07:14:04.888Z,16.10
2018-06-12T07:16:33.389Z,16.10
2018-06-12T07:19:01.936Z,16.30
2018-06-12T07:21:30.421Z,16.50
2018-06-12T07:23:58.811Z,16.60
2018-06-12T07:26:27.244Z,16.70
2018-06-12T07:28:55.959Z,16.40
2018-06-12T07:31:24.381Z,16.40
2018-06-12T07:33:52.820Z,16.20
2018-06-12T07:36:21.265Z,16.20
2018-06-12T07:38:50.971Z,16.30
2018-06-12T07:41:19.380Z,16.40
2018-06-12T07:43:47.832Z,16.50
2018-06-12T07:46:16.254Z,16.40
2018-06-12T07:48:44.690Z,16.40
2018-06-12T07:51:13.102Z,16.40
2018-06-12T07:56:09.682Z,16.10
2018-06-12T07:58:38.953Z,16.10
2018-06-12T08:01:07.377Z,16.00
2018-06-12T08:03:35.818Z,16.30
2018-06-12T08:06:04.257Z,16.30
2018-06-12T08:08:32.714Z,16.40
2018-06-12T08:11:01.144Z,16.40
2018-06-12T08:13:29.577Z,16.40
2018-06-12T08:15:58.008Z,16.30
2018-06-12T08:18:26.451Z,16.50
2018-06-12T08:23:21.072Z,16.50
2018-06-12T08:25:49.545Z,16.80
2018-06-12T08:30:46.176Z,17.00
2018-06-12T08:33:14.610Z,17.10
2018-06-12T08:35:43.052Z,17.10
2018-06-12T08:38:11.536Z,17.00
2018-06-12T08:40:39.965Z,17.10
2018-06-12T08:43:09.527Z,17.20
2018-06-12T08:45:37.965Z,17.50
2018-06-12T08:48:06.534Z,17.60
2018-06-12T08:50:34.949Z,17.30
2018-06-12T08:53:03.410Z,17.40
2018-06-12T08:55:31.900Z,17.10
2018-06-12T08:58:00.348Z,17.20
2018-06-12T09:00:28.831Z,17.30
2018-06-12T09:02:57.273Z,17.10
2018-06-12T09:05:25.696Z,17.20
2018-06-12T09:07:54.162Z,17.20
2018-06-12T09:10:22.593Z,17.50
2018-06-12T09:12:51.052Z,17.60
2018-06-12T09:15:19.467Z,17.70
2018-06-12T09:17:47.946Z,17.60
2018-06-12T09:20:16.387Z,17.50
2018-06-12T09:22:45.247Z,17.60
2018-06-12T09:25:13.721Z,17.50
2018-06-12T09:27:48.214Z,17.50
2018-06-12T09:30:17.832Z,17.70
2018-06-12T09:32:46.810Z,17.80
2018-06-12T09:35:15.232Z,18.00
2018-06-12T09:37:43.656Z,18.20
2018-06-12T09:40:12.141Z,18.10
2018-06-12T09:42:40.593Z,18.10
2018-06-12T09:45:09.073Z,18.20
2018-06-12T09:47:37.519Z,18.10
2018-06-12T09:50:06.023Z,18.10
2018-06-12T09:52:34.500Z,18.40
2018-06-12T09:55:02.958Z,18.10
2018-06-12T09:57:31.456Z,18.40
2018-06-12T09:59:59.942Z,18.50
2018-06-12T10:02:28.441Z,18.70
2018-06-12T10:04:56.932Z,18.60
2018-06-12T10:07:25.437Z,18.80
2018-06-12T10:09:53.949Z,18.90
2018-06-12T10:12:22.400Z,18.90
2018-06-12T10:14:50.854Z,19.20
2018-06-12T10:17:19.337Z,19.10
2018-06-12T10:19:47.828Z,18.80
2018-06-12T10:22:16.789Z,19.10
2018-06-12T10:24:45.266Z,19.30
2018-06-12T10:27:13.768Z,19.40
2018-06-12T10:29:42.249Z,19.10
2018-06-12T10:32:10.751Z,19.60
2018-06-12T10:34:39.193Z,19.80
2018-06-12T10:37:07.714Z,19.70
2018-06-12T10:39:36.116Z,20.00
2018-06-12T10:42:04.619Z,19.80
2018-06-12T10:44:33.100Z,19.80
2018-06-12T10:49:29.821Z,20.00
2018-06-12T10:51:58.285Z,20.20
2018-06-12T10:54:26.737Z,20.30
2018-06-12T10:56:55.194Z,20.60
2018-06-12T10:59:23.696Z,21.10
2018-06-12T11:01:52.142Z,21.40
2018-06-12T11:04:20.618Z,21.00
2018-06-12T11:06:49.142Z,20.70
2018-06-12T11:09:17.617Z,20.60
2018-06-12T11:11:46.085Z,20.30
2018-06-12T11:14:14.533Z,20.50
2018-06-12T11:16:43.023Z,20.80
2018-06-12T11:19:11.567Z,21.30
2018-06-12T11:21:40.053Z,21.00
2018-06-12T11:24:08.561Z,20.80
2018-06-12T11:29:05.268Z,20.60
2018-06-12T11:31:33.736Z,20.80
2018-06-12T11:34:02.210Z,20.90
2018-06-12T11:36:30.712Z,20.90
2018-06-12T11:38:59.256Z,21.00
2018-06-12T11:41:27.753Z,20.80
2018-06-12T11:43:56.226Z,20.40
2018-06-12T11:46:24.699Z,20.70
2018-06-12T11:48:53.180Z,21.10
2018-06-12T11:51:21.668Z,20.90
2018-06-12T11:53:50.165Z,20.50
2018-06-12T11:56:18.607Z,20.40
2018-06-12T11:58:47.037Z,20.80
2018-06-12T12:01:15.579Z,20.90
2018-06-12T12:03:44.007Z,20.90
2018-06-12T12:06:12.436Z,20.70
2018-06-12T12:08:41.190Z,20.40
2018-06-12T12:11:09.608Z,20.30
2018-06-12T12:13:38.240Z,20.70
2018-06-12T12:16:06.810Z,21.20
2018-06-12T12:18:35.285Z,21.60
2018-06-12T12:21:03.788Z,21.50
2018-06-12T12:23:32.207Z,21.50
2018-06-12T12:26:01.396Z,21.00
2018-06-12T12:28:29.936Z,20.80
2018-06-12T12:30:58.440Z,20.60
2018-06-12T12:33:26.922Z,20.20
2018-06-12T12:35:55.424Z,20.10
2018-06-12T12:38:23.849Z,19.80
2018-06-12T12:40:52.321Z,19.60
2018-06-12T12:43:20.769Z,19.70
2018-06-12T12:45:49.210Z,20.10
2018-06-12T12:48:17.728Z,20.20
2018-06-12T12:50:46.178Z,19.80
2018-06-12T12:53:14.706Z,19.80
2018-06-12T12:55:43.255Z,20.20
2018-06-12T12:58:11.829Z,20.50
2018-06-12T13:00:40.321Z,20.50
2018-06-12T13:03:08.800Z,20.00
2018-06-12T13:05:37.342Z,20.10
2018-06-12T13:08:05.829Z,20.00
2018-06-12T13:10:34.340Z,20.00
2018-06-12T13:13:02.796Z,19.80
2018-06-12T13:15:31.283Z,19.80
2018-06-12T13:17:59.774Z,19.40
2018-06-12T13:20:28.306Z,19.30
2018-06-12T13:22:56.869Z,19.50
2018-06-12T13:25:25.449Z,19.60
2018-06-12T13:27:53.938Z,19.60
2018-06-12T13:30:22.446Z,19.70
2018-06-12T13:32:50.898Z,19.80
2018-06-12T13:35:19.385Z,19.80
2018-06-12T13:37:47.861Z,19.90
2018-06-12T13:40:16.365Z,19.80
2018-06-12T13:42:44.944Z,19.40
2018-06-12T13:45:13.373Z,19.40
2018-06-12T13:47:41.875Z,19.20
2018-06-12T13:50:10.337Z,19.10
2018-06-12T13:52:38.786Z,19.30
2018-06-12T13:55:07.271Z,19.50
2018-06-12T13:57:35.775Z,19.20
2018-06-12T14:00:05.018Z,18.90
2018-06-12T14:02:33.455Z,19.00
2018-06-12T14:05:01.918Z,19.00
2018-06-12T14:07:30.373Z,19.20
2018-06-12T14:09:58.842Z,18.90
2018-06-12T14:12:27.327Z,18.90
2018-06-12T14:14:55.841Z,18.70
2018-06-12T14:17:24.304Z,18.50
2018-06-12T14:19:52.765Z,18.50
2018-06-12T14:22:21.240Z,18.60
2018-06-12T14:24:49.770Z,18.60
2018-06-12T14:27:18.248Z,18.60
2018-06-12T14:29:46.728Z,18.80
2018-06-12T14:32:15.173Z,18.50
2018-06-12T14:34:43.671Z,18.30
2018-06-12T14:37:12.174Z,18.30
2018-06-12T14:39:40.630Z,18.40
2018-06-12T14:42:09.114Z,18.50
2018-06-12T14:44:37.587Z,18.20
2018-06-12T14:47:06.051Z,18.20
2018-06-12T14:49:34.545Z,18.40
2018-06-12T14:52:03.031Z,18.40
2018-06-12T14:54:31.484Z,18.60
2018-06-12T14:56:59.912Z,18.50
2018-06-12T14:59:28.365Z,18.50
2018-06-12T15:01:56.829Z,18.40
2018-06-12T15:04:25.296Z,18.60
2018-06-12T15:09:21.854Z,18.60
2018-06-12T15:14:18.540Z,18.40
2018-06-12T15:16:47.100Z,18.30
2018-06-12T15:19:16.683Z,18.20
2018-06-12T15:21:45.163Z,18.20
2018-06-12T15:24:13.730Z,18.30
2018-06-12T15:26:42.382Z,18.10
2018-06-12T15:29:10.841Z,18.10
2018-06-12T15:31:39.305Z,18.10
2018-06-12T15:34:07.777Z,18.20
2018-06-12T15:36:36.299Z,17.90
2018-06-12T15:39:07.237Z,17.80
2018-06-12T15:41:36.084Z,17.50
2018-06-12T15:44:04.598Z,17.60
2018-06-12T15:46:33.112Z,18.00
2018-06-12T15:49:01.561Z,18.10
2018-06-12T15:51:30.009Z,17.90
2018-06-12T15:53:58.475Z,18.00
2018-06-12T15:56:27.089Z,17.70
2018-06-12T15:58:55.570Z,17.40
2018-06-12T16:01:23.998Z,17.00
2018-06-12T16:03:53.366Z,16.80
2018-06-12T16:06:21.890Z,16.80
2018-06-12T16:08:50.359Z,16.90
2018-06-12T16:11:18.833Z,17.00
2018-06-12T16:13:47.304Z,17.10
2018-06-12T16:16:15.765Z,17.00
2018-06-12T16:18:44.224Z,17.10
2018-06-12T16:21:12.674Z,17.00
2018-06-12T16:23:41.138Z,17.20
2018-06-12T16:26:09.694Z,17.20
2018-06-12T16:28:38.096Z,17.40
2018-06-12T16:33:34.702Z,17.30
2018-06-12T16:36:03.263Z,17.30
2018-06-12T16:38:31.654Z,17.40
2018-06-12T16:41:00.148Z,17.40
2018-06-12T16:43:28.590Z,17.60
2018-06-12T16:45:57.046Z,17.60
2018-06-12T16:48:25.491Z,17.60
2018-06-12T16:50:53.935Z,17.20
2018-06-12T16:53:22.441Z,17.30
2018-06-12T16:55:50.915Z,17.40
2018-06-12T16:58:19.526Z,17.30
2018-06-12T17:00:47.971Z,17.30
2018-06-12T17:03:16.456Z,17.50
2018-06-12T17:05:44.953Z,17.10
2018-06-12T17:08:13.445Z,17.10
2018-06-12T17:10:41.989Z,17.20
2018-06-12T17:13:10.437Z,17.20
2018-06-12T17:15:38.904Z,17.20
2018-06-12T17:18:07.396Z,17.10
2018-06-12T17:20:35.881Z,17.10
2018-06-12T17:23:04.379Z,16.90
2018-06-12T17:25:32.895Z,17.00
2018-06-12T17:28:01.411Z,16.60
2018-06-12T17:30:29.891Z,16.60
2018-06-12T17:32:58.410Z,16.60
2018-06-12T17:35:26.872Z,16.60
2018-06-12T17:37:55.357Z,16.70
2018-06-12T17:42:51.959Z,16.70
2018-06-12T17:45:20.411Z,16.70
2018-06-12T17:47:49.053Z,16.80
2018-06-12T17:50:17.529Z,17.10
2018-06-12T17:52:45.964Z,17.00
2018-06-12T17:55:14.429Z,16.90
2018-06-12T17:57:42.925Z,17.00
2018-06-12T18:00:11.561Z,17.00
2018-06-12T18:02:40.025Z,16.80
2018-06-12T18:05:08.885Z,16.80
2018-06-12T18:07:37.327Z,16.90
2018-06-12T18:10:05.784Z,17.00
2018-06-12T18:12:34.324Z,17.00
2018-06-12T18:15:02.798Z,17.00
2018-06-12T18:17:31.266Z,17.10
2018-06-12T18:20:01.588Z,17.00
2018-06-12T18:22:30.808Z,17.10
2018-06-12T18:24:59.555Z,17.20
2018-06-12T18:27:27.952Z,17.10
2018-06-12T18:29:56.460Z,17.10
2018-06-12T18:32:24.901Z,16.90
2018-06-12T18:34:53.420Z,17.00
2018-06-12T18:37:21.917Z,16.90
2018-06-12T18:39:50.356Z,17.00
2018-06-12T18:42:18.867Z,17.10
2018-06-12T18:44:47.380Z,17.10
2018-06-12T18:47:15.861Z,17.10
2018-06-12T18:49:44.301Z,17.10
2018-06-12T18:54:40.958Z,17.10
2018-06-12T18:57:09.468Z,17.20
2018-06-12T18:59:37.900Z,17.20
2018-06-12T19:02:06.936Z,17.20
2018-06-12T19:04:35.498Z,17.20
2018-06-12T19:07:03.985Z,17.10
2018-06-12T19:09:32.478Z,17.10
2018-06-12T19:12:00.950Z,17.10
2018-06-12T19:14:29.433Z,17.20
2018-06-12T19:16:57.876Z,17.30
2018-06-12T19:19:26.341Z,17.30
2018-06-12T19:21:54.916Z,17.30
2018-06-12T19:24:23.401Z,17.50
2018-06-12T19:26:51.862Z,17.40
2018-06-12T19:29:20.299Z,17.20
2018-06-12T19:31:48.801Z,17.20
2018-06-12T19:34:17.379Z,17.00
2018-06-12T19:36:45.871Z,17.00
2018-06-12T19:39:14.345Z,16.90
2018-06-12T19:41:42.952Z,16.90
2018-06-12T19:44:11.459Z,16.80
2018-06-12T19:46:39.920Z,16.80
2018-06-12T19:49:08.399Z,16.70
2018-06-12T19:51:36.943Z,16.80
2018-06-12T19:56:33.662Z,16.80
2018-06-12T19:59:02.973Z,16.60
2018-06-12T20:01:31.464Z,16.70
2018-06-12T20:03:59.964Z,16.80
2018-06-12T20:06:28.500Z,16.90
2018-06-12T20:08:57.009Z,16.80
2018-06-12T20:11:25.557Z,16.70
2018-06-12T20:13:54.112Z,16.80
2018-06-12T20:16:22.624Z,16.70
2018-06-12T20:21:19.281Z,16.70
2018-06-12T20:26:15.994Z,16.80
2018-06-12T20:28:44.501Z,16.80
2018-06-12T20:31:13.013Z,16.80
2018-06-12T20:33:41.539Z,17.00
2018-06-12T20:36:10.027Z,16.90
2018-06-12T20:38:38.612Z,17.00
2018-06-12T20:41:07.196Z,16.80
2018-06-12T20:43:35.771Z,16.70
2018-06-12T20:46:04.326Z,16.70
2018-06-12T20:48:32.860Z,16.80
2018-06-12T20:51:01.376Z,16.80
2018-06-12T20:53:29.973Z,16.60
2018-06-12T20:55:58.515Z,16.60
2018-06-12T20:58:27.032Z,16.60
2018-06-12T21:00:55.626Z,16.60
2018-06-12T21:03:24.279Z,16.70
2018-06-12T21:05:52.813Z,16.70
2018-06-12T21:08:21.329Z,16.50
2018-06-12T21:10:49.775Z,16.50
2018-06-12T21:13:18.223Z,16.30
2018-06-12T21:15:46.729Z,16.20
2018-06-12T21:18:15.220Z,16.30
2018-06-12T21:20:43.716Z,16.30
2018-06-12T21:23:12.248Z,16.30
2018-06-12T21:25:40.759Z,16.10
2018-06-12T21:28:09.233Z,16.00
2018-06-12T21:30:37.717Z,16.00
2018-06-12T21:33:06.275Z,16.10
2018-06-12T21:35:34.745Z,16.20
2018-06-12T21:38:03.288Z,16.10
2018-06-12T21:40:32.788Z,16.10
2018-06-12T21:43:01.321Z,16.30
2018-06-12T21:45:30.509Z,16.10
2018-06-12T21:47:59.041Z,16.10
2018-06-12T21:50:27.931Z,16.10
2018-06-12T21:55:24.666Z,16.10
2018-06-12T21:57:53.220Z,15.90
2018-06-12T22:00:31.936Z,15.90
2018-06-12T22:03:01.159Z,15.90
2018-06-12T22:05:29.694Z,16.00
2018-06-12T22:10:26.917Z,15.90
2018-06-12T22:12:55.428Z,15.70
2018-06-12T22:15:24.406Z,15.70
2018-06-12T22:17:54.783Z,15.80
2018-06-12T22:20:23.747Z,15.80
2018-06-12T22:22:52.820Z,15.80
2018-06-12T22:25:22.098Z,15.60
2018-06-12T22:27:51.211Z,15.70
2018-06-12T22:30:20.495Z,15.60
2018-06-12T22:32:49.499Z,15.50
2018-06-12T22:35:18.800Z,15.50
2018-06-12T22:37:47.667Z,15.40
2018-06-12T22:40:16.862Z,15.40
2018-06-12T22:45:13.799Z,15.60
2018-06-12T22:47:42.281Z,15.60
2018-06-12T22:50:10.782Z,15.50
2018-06-12T22:52:39.312Z,15.60
2018-06-12T22:55:07.890Z,15.60
2018-06-12T22:57:36.395Z,15.50
2018-06-12T23:00:04.963Z,15.50
2018-06-12T23:05:01.671Z,15.60
2018-06-12T23:07:30.200Z,15.60
2018-06-12T23:09:58.758Z,15.50
2018-06-12T23:12:27.322Z,15.40
2018-06-12T23:14:55.914Z,15.50
2018-06-12T23:17:24.433Z,15.30
2018-06-12T23:20:04.039Z,15.40
2018-06-12T23:22:32.989Z,15.50
2018-06-12T23:25:01.482Z,15.30
2018-06-12T23:27:29.972Z,15.30
2018-06-12T23:29:58.476Z,15.20
2018-06-12T23:32:27.012Z,15.20
2018-06-12T23:34:55.550Z,15.30
2018-06-12T23:37:24.100Z,15.30
2018-06-12T23:39:52.661Z,15.10
2018-06-12T23:42:21.138Z,15.30
2018-06-12T23:44:49.643Z,15.20
2018-06-12T23:47:18.086Z,15.00
2018-06-12T23:49:46.869Z,15.00
2018-06-12T23:52:15.374Z,15.10
2018-06-12T23:54:43.895Z,15.10
2018-06-12T23:57:12.353Z,15.20
2018-06-12T23:59:40.798Z,15.00
